Time;durP1;ratioP1;P1;durP2;ratioP2;P2;SDS_P1;SDS_P2;PMS_P1;PMS_P2;Temp;Humidity;BMP_temperature;BMP_pressure;BME280_temperature;BME280_humidity;BME280_pressure;Samples;Min_cycle;Max_cycle;Signal;HPM_P1;HPM_P2
2022/10/10 00:01:41;;;;;;;8.23;3.78;;;2.80;99.90;;;2.98;100.00;100177.56;5039088;27;130138;-70
2022/10/10 00:04:10;;;;;;;13.75;4.45;;;2.80;99.90;;;2.93;100.00;100185.50;5037329;27;129247;-69
2022/10/10 00:06:39;;;;;;;7.78;3.70;;;2.70;99.90;;;2.88;100.00;100192.41;5055737;27;124886;-69
2022/10/10 00:09:08;;;;;;;7.55;3.95;;;2.70;99.90;;;2.85;100.00;100192.91;5038819;27;125146;-73
2022/10/10 00:11:37;;;;;;;9.80;4.93;;;2.70;99.90;;;2.83;100.00;100197.69;5035348;27;130443;-69
2022/10/10 00:14:08;;;;;;;8.80;4.47;;;2.70;99.90;;;2.81;100.00;100194.44;5039537;27;128462;-71
2022/10/10 00:16:36;;;;;;;8.82;4.22;;;2.60;99.90;;;2.79;100.00;100207.28;5037299;27;125561;-70
2022/10/10 00:19:05;;;;;;;7.93;3.92;;;2.60;99.90;;;2.69;100.00;100201.72;5039457;27;124917;-69
2022/10/10 00:21:35;;;;;;;8.32;4.28;;;2.60;99.90;;;2.65;100.00;100203.25;5018924;27;130073;-70
2022/10/10 00:24:05;;;;;;;11.25;4.32;;;2.60;99.90;;;2.64;100.00;100209.69;5039226;27;128191;-69
2022/10/10 00:26:34;;;;;;;7.72;4.22;;;2.50;99.90;;;2.64;100.00;100205.13;5035756;27;125352;-70
2022/10/10 00:29:03;;;;;;;6.68;4.18;;;2.50;99.90;;;2.60;100.00;100203.19;5015546;28;125528;-69
2022/10/10 00:31:32;;;;;;;7.35;3.97;;;2.50;99.90;;;2.60;100.00;100213.91;5018584;28;129959;-70
2022/10/10 00:34:00;;;;;;;8.82;4.47;;;2.50;99.90;;;2.54;100.00;100212.19;5018555;28;129956;-71
2022/10/10 00:36:28;;;;;;;8.77;4.60;;;2.50;99.90;;;2.49;100.00;100210.22;5016659;28;125631;-71
2022/10/10 00:39:00;;;;;;;10.15;4.50;;;2.50;99.90;;;2.49;100.00;100213.72;5017329;28;125977;-71
2022/10/10 00:41:29;;;;;;;6.57;4.13;;;2.50;99.90;;;2.45;100.00;100217.94;5016738;28;129879;-76
2022/10/10 00:44:10;;;;;;;9.15;4.50;;;2.50;99.90;;;2.39;100.00;100223.44;5015675;28;129529;-70
2022/10/10 00:46:40;;;;;;;7.05;4.18;;;2.40;99.90;;;2.37;100.00;100221.00;5016580;28;126517;-70
2022/10/10 00:49:14;;;;;;;7.05;4.10;;;2.40;99.90;;;2.34;100.00;100222.28;5015462;28;126775;-71
2022/10/10 00:51:48;;;;;;;8.05;4.07;;;2.30;99.90;;;2.28;100.00;100227.78;5019660;27;129658;-71
2022/10/10 00:54:20;;;;;;;8.07;3.92;;;2.30;99.90;;;2.23;100.00;100225.84;5035092;27;131709;-72
2022/10/10 00:56:55;;;;;;;8.13;3.97;;;2.30;99.90;;;2.22;100.00;100231.44;5016904;28;126159;-71
2022/10/10 00:59:25;;;;;;;8.07;3.90;;;2.20;99.90;;;2.23;100.00;100233.88;5016782;28;125721;-75
2022/10/10 01:01:53;;;;;;;8.60;3.88;;;2.20;99.90;;;2.22;100.00;100232.22;5019270;28;129986;-74
2022/10/10 01:04:36;;;;;;;10.13;4.10;;;2.20;99.90;;;2.14;100.00;100236.09;5015729;28;129541;-71
2022/10/10 01:07:11;;;;;;;9.60;4.60;;;2.20;99.90;;;2.11;100.00;100233.88;5033264;27;125702;-70
2022/10/10 01:09:44;;;;;;;10.20;4.50;;;2.20;99.90;;;2.11;100.00;100233.09;5021216;27;124408;-70
2022/10/10 01:12:23;;;;;;;8.18;3.90;;;2.20;99.90;;;2.10;100.00;100243.00;5018621;27;129886;-70
2022/10/10 01:15:01;;;;;;;8.80;4.35;;;2.10;99.90;;;2.09;100.00;100233.31;5041860;27;130221;-70
2022/10/10 01:17:36;;;;;;;6.95;3.80;;;2.10;99.90;;;2.05;100.00;100237.50;5056844;27;125866;-70
2022/10/10 01:20:52;;;;;;;6.47;3.53;;;2.10;99.90;;;1.94;100.00;100238.34;5055803;27;125334;-72
2022/10/10 01:23:53;;;;;;;6.53;3.65;;;2.00;99.90;;;1.91;100.00;100246.88;5057113;27;129788;-70
2022/10/10 01:27:19;;;;;;;10.52;4.30;;;1.90;99.90;;;1.80;100.00;100246.63;5042010;27;128344;-71
2022/10/10 01:29:53;;;;;;;9.23;3.85;;;1.90;99.90;;;1.83;100.00;100239.22;5046335;27;125584;-70
2022/10/10 01:32:30;;;;;;;9.35;3.78;;;1.80;99.90;;;1.81;100.00;100239.44;5057240;27;125592;-71
2022/10/10 01:35:18;;;;;;;9.48;4.13;;;1.80;99.90;;;1.83;100.00;100244.56;5056872;27;130407;-71
2022/10/10 01:37:55;;;;;;;7.88;4.00;;;1.80;99.90;;;1.83;100.00;100252.59;5058533;27;128711;-70
2022/10/10 01:40:33;;;;;;;6.03;3.38;;;1.80;99.90;;;1.80;100.00;100243.16;5038374;27;127024;-71
2022/10/10 01:43:06;;;;;;;17.00;3.92;;;1.80;99.90;;;1.80;100.00;100257.34;5060144;27;125473;-70
2022/10/10 01:45:36;;;;;;;10.15;5.97;;;1.70;99.90;;;1.81;100.00;100252.81;5056501;27;130116;-69
2022/10/10 01:48:10;;;;;;;9.65;6.13;;;1.80;99.90;;;1.85;100.00;100258.50;5041428;27;129013;-73
2022/10/10 01:51:04;;;;;;;11.13;5.80;;;1.90;99.90;;;1.84;100.00;100256.88;5056693;27;126026;-71
2022/10/10 01:53:42;;;;;;;10.45;4.88;;;1.90;99.90;;;1.84;100.00;100259.56;5055335;27;125820;-71
2022/10/10 01:56:23;;;;;;;6.65;4.05;;;1.80;99.90;;;1.84;100.00;100264.91;5024263;27;129187;-71
2022/10/10 01:59:23;;;;;;;8.13;4.57;;;1.70;99.90;;;1.75;100.00;100275.97;5040141;27;129476;-71
2022/10/10 02:01:57;;;;;;;7.82;4.40;;;1.80;99.90;;;1.79;100.00;100273.63;5039410;27;125678;-71
2022/10/10 02:04:35;;;;;;;8.30;3.90;;;1.80;99.90;;;1.78;100.00;100278.19;5041313;27;125738;-71
2022/10/10 02:07:10;;;;;;;7.72;4.25;;;1.80;99.90;;;1.77;100.00;100276.53;5040565;27;128735;-72
2022/10/10 02:09:43;;;;;;;11.43;5.60;;;1.90;99.90;;;1.75;100.00;100270.63;5056133;27;130105;-72
2022/10/10 02:12:15;;;;;;;10.00;4.95;;;1.90;99.90;;;1.73;100.00;100280.75;5055967;27;125898;-72
2022/10/10 02:14:47;;;;;;;9.80;4.85;;;1.80;99.90;;;1.72;100.00;100279.13;5040042;27;125974;-71
2022/10/10 02:17:18;;;;;;;8.18;4.07;;;1.80;99.90;;;1.72;100.00;100268.41;5059180;27;130509;-73
2022/10/10 02:19:53;;;;;;;9.43;6.00;;;1.70;99.90;;;1.71;100.00;100271.31;5044671;27;129542;-71
2022/10/10 02:22:23;;;;;;;7.65;4.65;;;1.70;99.90;;;1.72;100.00;100279.13;5044098;27;125458;-71
2022/10/10 02:24:53;;;;;;;9.32;4.30;;;1.80;99.90;;;1.73;100.00;100275.41;5028117;27;124010;-72
2022/10/10 02:27:29;;;;;;;15.68;5.38;;;1.80;99.90;;;1.67;100.00;100270.97;5044587;27;129598;-72
2022/10/10 02:30:01;;;;;;;12.20;5.75;;;1.80;99.90;;;1.70;100.00;100275.88;5059315;27;129700;-72
2022/10/10 02:32:37;;;;;;;13.10;5.60;;;1.80;99.90;;;1.74;100.00;100287.72;5040577;27;126886;-72
2022/10/10 02:35:12;;;;;;;13.17;5.63;;;1.80;99.90;;;1.64;100.00;100282.16;5059063;27;126864;-71
2022/10/10 02:37:42;;;;;;;10.35;5.80;;;1.80;99.90;;;1.65;100.00;100291.78;5044720;27;129029;-71
2022/10/10 02:40:15;;;;;;;9.70;5.45;;;1.90;99.90;;;1.67;100.00;100291.56;5058996;27;129753;-71
2022/10/10 02:42:47;;;;;;;8.40;5.15;;;1.80;99.90;;;1.67;100.00;100291.56;5059095;27;125828;-70
2022/10/10 02:45:18;;;;;;;11.40;5.72;;;1.70;99.90;;;1.72;100.00;100295.16;5059613;27;125856;-70
2022/10/10 02:47:48;;;;;;;9.25;5.38;;;1.80;99.90;;;1.79;100.00;100290.53;5058762;27;130494;-72
2022/10/10 02:50:18;;;;;;;10.95;5.30;;;2.00;99.90;;;1.77;100.00;100289.94;5059227;27;129799;-70
2022/10/10 02:52:47;;;;;;;8.55;5.43;;;1.90;99.90;;;1.80;100.00;100281.44;5062299;27;125290;-72
2022/10/10 02:55:16;;;;;;;8.55;4.95;;;1.90;99.90;;;1.79;100.00;100290.53;5041269;27;125389;-71
2022/10/10 02:57:45;;;;;;;9.98;6.00;;;1.90;99.90;;;1.80;100.00;100281.44;5061763;27;129881;-71
2022/10/10 03:00:15;;;;;;;12.48;6.43;;;1.80;99.90;;;1.85;100.00;100285.28;5040865;27;129318;-71
2022/10/10 03:02:44;;;;;;;14.77;8.18;;;1.90;99.90;;;1.88;100.00;100284.81;5059298;27;125665;-72
2022/10/10 03:05:15;;;;;;;13.63;6.55;;;2.00;99.90;;;1.92;100.00;100291.34;5044306;27;124493;-71
2022/10/10 03:07:44;;;;;;;11.02;5.85;;;2.00;99.90;;;1.91;100.00;100287.81;5040302;27;130185;-75
2022/10/10 03:10:15;;;;;;;10.93;5.68;;;1.80;99.90;;;1.85;100.00;100293.31;5039908;27;128605;-73
2022/10/10 03:12:44;;;;;;;11.07;6.00;;;1.70;99.90;;;1.78;100.00;100286.22;5040696;27;125289;-71
2022/10/10 03:15:13;;;;;;;10.48;5.63;;;1.60;99.90;;;1.75;100.00;100300.06;5040822;27;124724;-71
2022/10/10 03:17:41;;;;;;;10.93;6.53;;;1.60;99.90;;;1.73;100.00;100293.31;5038229;27;130052;-72
2022/10/10 03:20:11;;;;;;;14.65;7.35;;;1.50;99.90;;;1.66;100.00;100290.75;5038524;27;129596;-75
2022/10/10 03:22:41;;;;;;;8.65;5.07;;;1.50;99.90;;;1.61;100.00;100287.97;5038232;27;126977;-72
2022/10/10 03:25:10;;;;;;;9.30;6.05;;;1.50;99.90;;;1.61;100.00;100287.97;5040280;27;125628;-71
2022/10/10 03:27:38;;;;;;;13.02;6.30;;;1.50;99.90;;;1.57;100.00;100292.16;5041499;27;130196;-71
2022/10/10 03:30:09;;;;;;;10.38;5.68;;;1.50;99.90;;;1.54;100.00;100289.94;5037958;27;129402;-70
2022/10/10 03:32:39;;;;;;;12.30;6.47;;;1.50;99.90;;;1.54;100.00;100297.97;5037933;27;125875;-72
2022/10/10 03:35:09;;;;;;;10.23;5.85;;;1.50;99.90;;;1.48;100.00;100293.53;5037818;27;125251;-73
2022/10/10 03:37:38;;;;;;;11.98;6.43;;;1.50;99.90;;;1.46;100.00;100298.31;5037167;27;130471;-73
2022/10/10 03:40:11;;;;;;;16.45;6.50;;;1.50;99.90;;;1.40;100.00;100298.19;5037421;27;129325;-72
2022/10/10 03:42:40;;;;;;;11.18;5.80;;;1.50;99.90;;;1.38;100.00;100308.28;5038061;27;125851;-72
2022/10/10 03:45:10;;;;;;;11.45;5.88;;;1.40;99.90;;;1.37;100.00;100298.66;5038084;27;125901;-72
2022/10/10 03:47:39;;;;;;;13.57;7.13;;;1.40;99.90;;;1.30;100.00;100305.97;5039123;27;129455;-72
2022/10/10 03:50:09;;;;;;;12.32;6.70;;;1.40;99.90;;;1.26;100.00;100302.13;5022940;27;129416;-71
2022/10/10 03:52:38;;;;;;;14.35;6.82;;;1.30;99.90;;;1.24;100.00;100309.56;5039487;27;125436;-71
2022/10/10 03:55:09;;;;;;;12.43;7.47;;;1.30;99.90;;;1.19;100.00;100312.13;5036665;27;126073;-73
2022/10/10 03:57:38;;;;;;;13.50;7.20;;;1.30;99.90;;;1.15;100.00;100311.72;5041180;27;129644;-71
2022/10/10 04:00:10;;;;;;;15.57;7.38;;;1.30;1.00;;;1.20;100.00;100308.38;4989316;27;128922;-72
2022/10/10 04:02:39;;;;;;;13.52;7.38;;;1.40;1.00;;;1.22;100.00;100311.66;5039527;27;125383;-73
2022/10/10 04:05:09;;;;;;;14.02;7.75;;;1.40;1.00;;;1.28;100.00;100318.75;5038881;27;126454;-72
2022/10/10 04:07:37;;;;;;;12.98;6.90;;;1.40;1.00;;;1.31;100.00;100320.97;5059732;27;129977;-71
2022/10/10 04:10:09;;;;;;;19.10;8.07;;;1.50;1.00;;;1.37;100.00;100330.75;5039736;27;129764;-72
2022/10/10 04:12:38;;;;;;;13.98;7.18;;;1.70;1.00;;;1.42;100.00;100317.50;5060312;27;126174;-72
2022/10/10 04:15:08;;;;;;;13.00;7.50;;;1.60;1.00;;;1.48;100.00;100320.28;5043358;27;126456;-73
2022/10/10 04:17:37;;;;;;;12.80;7.75;;;1.50;1.00;;;1.50;100.00;100328.91;5042324;27;130373;-72
2022/10/10 04:20:07;;;;;;;11.63;7.72;;;1.60;1.00;;;1.56;100.00;100323.44;5039766;27;130423;-72
2022/10/10 04:22:35;;;;;;;11.52;7.18;;;1.60;1.00;;;1.57;100.00;100329.59;5051819;27;125480;-73
2022/10/10 04:25:05;;;;;;;13.80;7.50;;;1.60;1.00;;;1.55;100.00;100331.69;5054133;27;125140;-72
2022/10/10 04:27:35;;;;;;;13.27;8.13;;;1.60;1.00;;;1.56;100.00;100334.16;5012565;27;130629;-74
2022/10/10 04:30:06;;;;;;;15.90;7.72;;;1.50;1.00;;;1.55;100.00;100337.06;5019518;27;129809;-73
2022/10/10 04:32:35;;;;;;;14.35;7.95;;;1.60;1.00;;;1.51;100.00;100330.53;5051408;27;125926;-75
2022/10/10 04:35:05;;;;;;;25.00;12.98;;;1.50;1.00;;;1.49;100.00;100343.31;5057636;27;125484;-71
2022/10/10 04:37:35;;;;;;;15.38;8.20;;;1.50;1.00;;;1.48;100.00;100339.00;5056664;27;130221;-72
2022/10/10 04:40:04;;;;;;;16.42;9.10;;;1.50;1.00;;;1.47;100.00;100337.41;5057547;27;129414;-75
2022/10/10 04:42:34;;;;;;;20.00;9.88;;;1.50;1.00;;;1.49;100.00;100338.78;5057180;27;126508;-71
2022/10/10 04:45:03;;;;;;;17.75;10.05;;;1.50;1.00;;;1.52;100.00;100332.16;5042376;27;124356;-72
2022/10/10 04:47:32;;;;;;;15.70;9.38;;;1.60;1.00;;;1.57;100.00;100337.63;5042076;27;129702;-70
2022/10/10 04:50:00;;;;;;;15.38;9.85;;;1.60;1.00;;;1.63;100.00;100334.03;5057547;27;129698;-70
2022/10/10 04:52:28;;;;;;;16.25;10.55;;;1.70;1.00;;;1.71;100.00;100341.72;5057038;27;126713;-69
2022/10/10 04:54:57;;;;;;;13.35;9.68;;;1.80;1.00;;;1.82;100.00;100340.09;5025659;27;125189;-72
2022/10/10 04:57:25;;;;;;;21.10;10.30;;;1.80;1.00;;;1.93;100.00;100354.50;5038065;27;129962;-71
2022/10/10 04:59:55;;;;;;;15.20;8.65;;;1.80;1.00;;;2.04;100.00;100351.03;5041070;27;129057;-74
2022/10/10 05:02:24;;;;;;;13.20;8.85;;;1.80;1.00;;;2.11;100.00;100354.41;5053510;27;126331;-76
2022/10/10 05:04:52;;;;;;;12.35;7.82;;;1.80;1.00;;;2.22;100.00;100346.59;5055963;27;126271;-69
2022/10/10 05:07:21;;;;;;;13.43;8.45;;;1.90;1.00;;;2.31;100.00;100355.91;5040810;27;129843;-71
2022/10/10 05:09:50;;;;;;;12.82;9.05;;;2.20;1.00;;;2.44;100.00;100354.81;5056054;27;130143;-72
2022/10/10 05:12:19;;;;;;;17.02;10.90;;;2.40;1.00;;;2.63;100.00;100355.47;5041048;27;125564;-70
2022/10/10 05:14:47;;;;;;;16.60;9.68;;;2.50;1.00;;;2.77;100.00;100354.13;5056368;27;125801;-70
2022/10/10 05:17:18;;;;;;;16.40;9.90;;;2.50;1.00;;;2.91;100.00;100357.34;5055534;27;129839;-71
2022/10/10 05:19:46;;;;;;;16.05;9.75;;;2.60;1.00;;;3.00;100.00;100363.94;5056363;27;129807;-71
2022/10/10 05:22:14;;;;;;;17.83;10.35;;;2.80;1.00;;;3.15;100.00;100359.94;5056702;27;126382;-75
2022/10/10 05:24:43;;;;;;;12.50;7.85;;;3.00;1.00;;;3.31;100.00;100366.38;5056919;27;125861;-72
2022/10/10 05:27:11;;;;;;;12.75;7.55;;;3.10;1.00;;;3.45;100.00;100356.97;5041602;27;128851;-72
2022/10/10 05:29:40;;;;;;;12.98;7.60;;;3.20;1.00;;;3.59;100.00;100360.94;5057061;27;129800;-73
2022/10/10 05:32:09;;;;;;;13.30;6.78;;;3.30;1.00;;;3.69;100.00;100362.16;5056950;27;125501;-74
2022/10/10 05:34:39;;;;;;;13.98;8.55;;;3.50;1.00;;;3.75;100.00;100369.25;5057026;27;125571;-76
2022/10/10 05:37:07;;;;;;;13.23;7.40;;;3.60;1.00;;;3.85;100.00;100372.09;5056978;27;131387;-76
2022/10/10 05:39:36;;;;;;;11.80;7.18;;;3.70;1.00;;;3.95;100.00;100380.28;5057109;27;129216;-75
2022/10/10 05:42:05;;;;;;;12.15;7.10;;;3.80;1.00;;;4.13;100.00;100375.72;5058491;27;128071;-75
2022/10/10 05:44:34;;;;;;;12.13;6.95;;;3.90;1.00;;;4.13;100.00;100375.72;5040243;27;124309;-76
2022/10/10 05:47:03;;;;;;;12.55;6.45;;;3.90;1.00;;;4.19;100.00;100379.28;5054749;27;130421;-75
2022/10/10 05:49:31;;;;;;;10.27;5.90;;;4.00;1.00;;;4.27;100.00;100384.22;5056517;27;130537;-74
2022/10/10 05:52:01;;;;;;;10.50;6.75;;;4.00;1.00;;;4.34;100.00;100386.75;5058072;27;126322;-74
2022/10/10 05:54:30;;;;;;;27.98;20.52;;;4.10;1.00;;;4.44;100.00;100386.88;5026224;27;125787;-74
2022/10/10 05:56:59;;;;;;;29.02;25.95;;;4.20;1.00;;;4.57;100.00;100394.59;5059271;27;130816;-73
2022/10/10 05:59:29;;;;;;;22.98;18.92;;;4.30;1.00;;;4.78;100.00;100386.75;5028077;27;128799;-75
2022/10/10 06:01:57;;;;;;;14.02;10.77;;;4.50;1.00;;;4.94;100.00;100399.34;5045076;27;125583;-74
2022/10/10 06:04:26;;;;;;;16.02;10.35;;;4.70;1.00;;;5.07;100.00;100394.63;5059869;27;126382;-73
2022/10/10 06:06:54;;;;;;;16.35;10.55;;;4.80;1.00;;;5.27;100.00;100400.22;5060988;27;129886;-73
2022/10/10 06:09:24;;;;;;;34.13;20.52;;;4.90;1.00;;;5.45;100.00;100390.16;5060259;27;129259;-73
2022/10/10 06:11:53;;;;;;;12.15;7.45;;;5.10;99.90;;;5.67;100.00;100398.97;5041727;27;126309;-73
2022/10/10 06:14:21;;;;;;;14.95;9.68;;;5.20;99.90;;;5.85;100.00;100399.66;5027902;27;124486;-72
2022/10/10 06:16:50;;;;;;;12.93;7.35;;;5.30;99.90;;;6.01;100.00;100396.00;5059576;27;130425;-73
2022/10/10 06:19:18;;;;;;;9.20;6.53;;;5.40;99.90;;;6.20;100.00;100406.38;5059972;27;129639;-73
2022/10/10 06:21:48;;;;;;;19.55;12.98;;;5.60;99.90;;;6.29;100.00;100399.41;5059855;27;125624;-71
2022/10/10 06:24:17;;;;;;;12.00;5.97;;;5.60;99.90;;;6.38;100.00;100408.63;5059931;27;125364;-72
2022/10/10 06:26:47;;;;;;;14.63;9.40;;;5.70;99.90;;;6.56;100.00;100401.19;5059748;27;130219;-73
2022/10/10 06:29:15;;;;;;;24.10;14.43;;;5.90;99.90;;;6.65;100.00;100405.00;5059702;27;130099;-74
2022/10/10 06:31:44;;;;;;;23.98;15.95;;;5.90;99.90;;;6.71;100.00;100406.63;5059758;27;126113;-74
2022/10/10 06:34:12;;;;;;;22.45;15.20;;;6.00;99.90;;;6.76;100.00;100409.38;5059745;27;125395;-74
2022/10/10 06:36:41;;;;;;;25.00;15.48;;;6.10;99.90;;;6.80;100.00;100409.66;5059270;27;130020;-73
2022/10/10 06:39:10;;;;;;;20.63;13.93;;;6.10;99.90;;;6.90;100.00;100408.88;5059844;27;129752;-72
2022/10/10 06:41:39;;;;;;;18.33;11.48;;;6.20;99.90;;;6.97;100.00;100409.44;5059398;27;126956;-73
2022/10/10 06:44:13;;;;;;;18.35;12.38;;;6.30;99.90;;;7.11;100.00;100405.16;5044526;27;125921;-72
2022/10/10 06:46:41;;;;;;;15.77;10.10;;;6.50;99.90;;;7.18;100.00;100411.13;5059306;27;130525;-74
2022/10/10 06:49:10;;;;;;;16.42;10.95;;;6.50;99.90;;;7.34;100.00;100411.16;5059225;27;129443;-73
2022/10/10 06:51:39;;;;;;;20.75;15.02;;;6.60;99.90;;;7.47;100.00;100416.03;5059371;27;125823;-72
2022/10/10 06:54:08;;;;;;;17.90;14.98;;;6.70;99.90;;;7.70;100.00;100412.00;5059218;27;125904;-72
2022/10/10 06:56:36;;;;;;;18.58;15.00;;;7.00;99.90;;;7.84;100.00;100406.06;5059108;27;129668;-71
2022/10/10 06:59:05;;;;;;;14.52;11.73;;;7.10;99.90;;;8.00;100.00;100421.19;5059807;27;129404;-72
2022/10/10 07:01:35;;;;;;;21.92;18.38;;;7.20;99.90;;;8.18;100.00;100409.00;5058979;27;126231;-73
2022/10/10 07:04:04;;;;;;;20.38;17.02;;;7.30;99.90;;;8.24;100.00;100415.19;5040854;27;125484;-72
2022/10/10 07:06:33;;;;;;;16.20;9.40;;;7.40;99.90;;;8.32;100.00;100408.44;5059879;27;130004;-72
2022/10/10 07:09:01;;;;;;;15.68;7.10;;;7.40;99.90;;;8.50;100.00;100421.41;5059023;27;130103;-73
2022/10/10 07:11:31;;;;;;;12.65;8.80;;;7.50;99.90;;;8.53;100.00;100415.44;5026937;27;125496;-72
2022/10/10 07:13:59;;;;;;;14.02;9.23;;;7.60;99.90;;;8.62;100.00;100415.69;5058256;27;125534;-74
2022/10/10 07:16:28;;;;;;;13.90;8.80;;;7.70;99.90;;;8.79;100.00;100415.38;5058748;27;130605;-72
2022/10/10 07:18:58;;;;;;;14.70;9.02;;;7.90;99.90;;;8.93;100.00;100421.78;5058796;27;129508;-73
2022/10/10 07:21:26;;;;;;;17.10;8.68;;;8.00;99.90;;;9.11;100.00;100416.81;5057467;27;125684;-75
2022/10/10 07:23:55;;;;;;;12.77;7.47;;;8.20;99.90;;;9.33;100.00;100411.84;5058482;27;125477;-74
2022/10/10 07:26:27;;;;;;;14.50;7.35;;;8.40;99.90;;;9.54;100.00;100419.81;5058847;27;130269;-74
2022/10/10 07:28:55;;;;;;;11.55;6.72;;;8.50;99.90;;;9.63;100.00;100423.56;5042303;27;130698;-74
2022/10/10 07:31:24;;;;;;;12.13;6.97;;;8.50;99.90;;;9.76;100.00;100422.09;5058560;27;126852;-75
2022/10/10 07:33:53;;;;;;;14.65;5.75;;;8.50;99.90;;;9.71;100.00;100425.66;5058438;27;126143;-73
2022/10/10 07:36:23;;;;;;;13.45;5.50;;;8.60;99.90;;;9.71;100.00;100431.06;5058327;27;129947;-73
2022/10/10 07:38:53;;;;;;;10.82;5.95;;;8.70;99.90;;;10.07;100.00;100428.06;5058502;27;129346;-74
2022/10/10 07:41:22;;;;;;;13.45;5.18;;;9.00;99.90;;;10.24;100.00;100421.41;5058876;27;126436;-73
2022/10/10 07:43:55;;;;;;;14.18;7.03;;;9.10;99.90;;;10.42;100.00;100418.00;5058703;27;125490;-74
2022/10/10 07:46:24;;;;;;;12.75;5.80;;;9.30;99.90;;;10.54;100.00;100420.28;5058207;27;130017;-77
2022/10/10 07:48:52;;;;;;;13.30;5.93;;;9.30;99.90;;;10.58;100.00;100415.91;5036265;27;129644;-73
2022/10/10 07:51:23;;;;;;;8.45;4.82;;;9.40;91.30;;;10.83;100.00;100418.59;5037658;27;125804;-74
2022/10/10 07:53:53;;;;;;;12.45;5.70;;;9.60;90.00;;;10.89;100.00;100420.97;5019630;27;126903;-73
2022/10/10 07:56:24;;;;;;;8.15;4.95;;;9.70;90.00;;;10.97;100.00;100416.81;5005265;27;129610;-73
2022/10/10 07:58:53;;;;;;;9.50;4.60;;;9.80;90.00;;;11.15;97.36;100418.72;5022707;27;129259;-72
2022/10/10 08:01:22;;;;;;;9.07;3.97;;;9.90;62.00;;;11.22;96.67;100417.53;5005664;27;126956;-71
2022/10/10 08:03:50;;;;;;;6.70;3.60;;;10.10;49.70;;;11.33;94.63;100425.25;5023271;27;125742;-69
2022/10/10 08:06:19;;;;;;;5.38;2.58;;;10.20;28.00;;;11.39;89.76;100420.56;5038461;27;131593;-74
2022/10/10 08:08:51;;;;;;;6.32;3.17;;;10.20;1.00;;;11.61;90.73;100419.13;5040362;27;130621;-73
2022/10/10 08:11:22;;;;;;;7.35;3.50;;;10.40;6.00;;;11.77;91.22;100423.25;5036618;27;125397;-73
2022/10/10 08:13:51;;;;;;;8.38;3.13;;;10.60;10.40;;;11.91;91.10;100427.94;5019811;27;125326;-73
2022/10/10 08:16:22;;;;;;;17.20;4.15;;;10.70;9.90;;;12.04;90.02;100413.56;5037336;27;130379;-75
2022/10/10 08:18:50;;;;;;;10.70;3.55;;;10.70;8.10;;;12.14;89.27;100420.75;5037498;27;129822;-73
2022/10/10 08:21:19;;;;;;;8.50;3.05;;;10.80;1.00;;;12.15;84.81;100417.72;5022280;27;126839;-74
2022/10/10 08:23:50;;;;;;;11.30;3.03;;;10.90;1.00;;;12.35;83.34;100415.75;5036943;27;126245;-72
2022/10/10 08:26:19;;;;;;;4.60;2.53;;;11.00;1.00;;;12.26;82.06;100414.81;5040473;27;130132;-73
2022/10/10 08:28:48;;;;;;;7.13;2.40;;;11.10;1.00;;;12.43;77.60;100416.97;5019428;27;129632;-71
2022/10/10 08:31:20;;;;;;;4.38;1.85;;;11.00;1.00;;;12.48;78.04;100414.97;5038773;27;125529;-74
2022/10/10 08:33:51;;;;;;;5.47;2.10;;;11.20;1.00;;;12.51;78.40;100413.53;5022402;27;127010;-71
2022/10/10 08:36:22;;;;;;;7.15;2.13;;;11.40;1.00;;;12.68;76.65;100419.19;5019193;27;130385;-72
2022/10/10 08:38:56;;;;;;;6.30;2.58;;;11.50;1.00;;;12.79;75.66;100419.78;5019273;27;129419;-72
2022/10/10 08:41:38;;;;;;;4.43;1.95;;;11.60;1.00;;;12.91;75.38;100416.56;5036530;27;125664;-76
2022/10/10 08:44:16;;;;;;;4.82;1.73;;;11.80;1.00;;;13.07;72.55;100419.75;5044198;27;125290;-72
2022/10/10 08:46:50;;;;;;;5.18;2.08;;;11.90;1.00;;;13.17;70.87;100419.53;5040293;27;129102;-71
2022/10/10 08:49:26;;;;;;;3.35;1.50;;;12.00;1.00;;;13.26;65.44;100423.16;5045959;27;130018;-70
2022/10/10 08:52:07;;;;;;;3.38;1.33;;;12.00;1.00;;;13.23;65.21;100418.31;5056298;27;125732;-71
2022/10/10 08:54:39;;;;;;;4.60;1.88;;;11.70;1.00;;;13.38;65.80;100425.34;5021123;27;125354;-71
2022/10/10 08:57:21;;;;;;;2.92;1.40;;;12.10;1.00;;;13.46;59.90;100421.91;5055925;27;130590;-70
2022/10/10 08:59:55;;;;;;;4.90;1.50;;;12.20;1.00;;;13.60;61.44;100427.31;5056265;27;130301;-69
2022/10/10 09:02:35;;;;;;;1.13;0.80;;;12.30;1.00;;;13.67;54.26;100421.44;5038632;27;126338;-73
2022/10/10 09:05:06;;;;;;;3.70;1.20;;;12.20;1.00;;;13.70;54.15;100422.72;5041037;27;124559;-73
2022/10/10 09:07:54;;;;;;;3.35;1.10;;;12.30;1.00;;;13.79;55.84;100418.13;5023501;27;128736;-72
2022/10/10 09:10:32;;;;;;;1.20;0.75;;;12.40;1.00;;;14.01;57.70;100420.84;5040835;27;129299;-72
2022/10/10 09:13:15;;;;;;;1.70;0.80;;;12.70;1.00;;;14.08;54.78;100414.16;5056126;27;126508;-72
2022/10/10 09:16:02;;;;;;;2.40;0.90;;;12.80;1.00;;;13.90;53.89;100418.69;5055241;27;126167;-72
2022/10/10 09:18:42;;;;;;;;;;;12.70;1.00;;;13.99;54.97;100428.56;5056193;27;130003;-73
2022/10/10 09:21:16;;;;;;;1.17;0.85;;;12.80;1.00;;;14.24;54.23;100418.06;5075053;27;129548;-73
2022/10/10 09:23:51;;;;;;;2.95;1.00;;;12.80;1.00;;;14.37;54.93;100419.91;5063636;27;125265;-73
2022/10/10 09:26:27;;;;;;;1.23;0.80;;;12.90;1.00;;;14.25;52.88;100422.44;5081362;27;125483;-72
2022/10/10 09:29:02;;;;;;;2.03;0.90;;;12.90;1.00;;;14.24;53.06;100429.00;5080689;27;130007;-72
2022/10/10 09:31:38;;;;;;;2.22;0.90;;;13.10;1.00;;;14.54;52.43;100412.94;5038425;27;129535;-73
2022/10/10 09:34:16;;;;;;;2.25;0.98;;;13.20;1.00;;;14.49;50.38;100423.97;5060856;27;125724;-70
2022/10/10 09:36:47;;;;;;;1.25;0.70;;;13.00;1.00;;;14.57;48.81;100418.56;5060438;27;125280;-70
2022/10/10 09:39:34;;;;;;;3.42;1.05;;;13.00;1.00;;;14.61;50.60;100421.47;5028727;27;128923;-72
2022/10/10 09:42:10;;;;;;;2.58;0.88;;;13.10;1.00;;;14.55;47.02;100420.81;5044617;27;129278;-71
2022/10/10 09:44:41;;;;;;;1.42;0.90;;;13.20;1.00;;;14.57;47.31;100420.50;5058020;27;126438;-71
2022/10/10 09:47:14;;;;;;;2.28;0.85;;;13.20;1.00;;;14.59;49.19;100412.78;5040091;27;125473;-72
2022/10/10 09:49:44;;;;;;;2.42;0.90;;;13.10;1.00;;;14.73;51.50;100413.50;5039663;27;130015;-71
2022/10/10 09:52:26;;;;;;;2.70;0.90;;;13.30;1.00;;;14.89;52.27;100410.31;5024710;27;129802;-74
2022/10/10 09:55:01;;;;;;;2.83;0.90;;;13.60;1.00;;;15.00;50.61;100414.34;5039727;27;125690;-73
2022/10/10 09:57:37;;;;;;;2.85;1.00;;;13.70;1.00;;;15.00;46.77;100408.88;5039920;27;125548;-74
2022/10/10 10:00:34;;;;;;;2.35;0.85;;;13.70;1.00;;;15.23;49.24;100403.28;5039665;27;129896;-72
2022/10/10 10:03:12;;;;;;;;;;;13.80;1.00;;;15.16;46.22;100408.41;5021676;27;129822;-72
2022/10/10 10:05:42;;;;;;;;;;;13.70;1.00;;;14.97;45.47;100406.00;5039828;27;126715;-71
2022/10/10 10:08:27;;;;;;;3.30;1.25;;;13.50;1.00;;;15.01;47.96;100407.78;5038249;27;126068;-71
2022/10/10 10:10:59;;;;;;;2.67;0.90;;;13.50;1.00;;;15.08;47.88;100402.66;5039342;27;130993;-72
2022/10/10 10:13:32;;;;;;;3.78;1.05;;;13.50;1.00;;;15.22;47.21;100401.69;5039750;27;129517;-71
2022/10/10 10:16:06;;;;;;;1.27;0.70;;;13.60;1.00;;;15.27;45.74;100396.88;5021558;27;125762;-71
2022/10/10 10:18:42;;;;;;;1.05;0.50;;;13.50;1.00;;;15.14;44.13;100399.75;5023516;27;124530;-71
2022/10/10 10:21:19;;;;;;;2.38;0.85;;;13.30;1.00;;;15.02;43.47;100398.44;5039070;27;130342;-71
2022/10/10 10:23:58;;;;;;;1.42;0.70;;;13.20;1.00;;;15.03;46.45;100394.56;5039367;27;129703;-71
2022/10/10 10:26:43;;;;;;;1.50;0.73;;;13.50;1.00;;;15.27;45.43;100385.94;5007336;27;125972;-71
2022/10/10 10:29:32;;;;;;;4.97;1.38;;;13.80;1.00;;;15.37;44.97;100390.25;5039130;27;125985;-71
2022/10/10 10:32:09;;;;;;;1.25;0.70;;;13.90;1.00;;;15.43;42.07;100391.72;5020348;27;129896;-71